sensor_id;sensor_type;location;lat;lon;timestamp;pressure;altitude;pressure_sealevel;temperature;humidity
52185;BME280;38160;52.876;18.778;2022-10-26T00:01:35;101003.00;;;10.92;100.00
52185;BME280;38160;52.876;18.778;2022-10-26T00:04:06;101000.95;;;10.90;100.00
52185;BME280;38160;52.876;18.778;2022-10-26T00:06:38;100999.75;;;10.89;100.00
52185;BME280;38160;52.876;18.778;2022-10-26T00:09:10;101008.19;;;10.86;100.00
52185;BME280;38160;52.876;18.778;2022-10-26T00:11:42;101004.75;;;10.80;100.00
52185;BME280;38160;52.876;18.778;2022-10-26T00:14:13;101002.53;;;10.75;100.00
52185;BME280;38160;52.876;18.778;2022-10-26T00:16:45;101000.12;;;10.68;100.00
52185;BME280;38160;52.876;18.778;2022-10-26T00:19:17;101008.22;;;10.68;100.00
52185;BME280;38160;52.876;18.778;2022-10-26T00:21:48;100999.09;;;10.65;100.00
52185;BME280;38160;52.876;18.778;2022-10-26T00:24:20;101002.09;;;10.62;100.00
52185;BME280;38160;52.876;18.778;2022-10-26T00:26:52;101006.13;;;10.62;100.00
52185;BME280;38160;52.876;18.778;2022-10-26T00:29:23;101001.39;;;10.60;100.00
52185;BME280;38160;52.876;18.778;2022-10-26T00:31:55;101001.54;;;10.58;100.00
52185;BME280;38160;52.876;18.778;2022-10-26T00:34:27;101006.27;;;10.56;100.00
52185;BME280;38160;52.876;18.778;2022-10-26T00:36:59;101005.87;;;10.51;100.00
52185;BME280;38160;52.876;18.778;2022-10-26T00:39:30;101008.05;;;10.47;100.00
52185;BME280;38160;52.876;18.778;2022-10-26T00:42:02;101018.44;;;10.42;100.00
52185;BME280;38160;52.876;18.778;2022-10-26T00:47:41;101020.39;;;10.36;100.00
52185;BME280;38160;52.876;18.778;2022-10-26T00:50:23;101023.41;;;10.33;100.00
52185;BME280;38160;52.876;18.778;2022-10-26T00:52:58;101015.39;;;10.27;100.00
52185;BME280;38160;52.876;18.778;2022-10-26T00:55:41;101017.52;;;10.20;100.00
52185;BME280;38160;52.876;18.778;2022-10-26T00:58:11;101013.73;;;10.12;100.00
52185;BME280;38160;52.876;18.778;2022-10-26T01:00:42;101016.02;;;10.07;100.00
52185;BME280;38160;52.876;18.778;2022-10-26T01:03:14;101012.80;;;10.04;100.00
52185;BME280;38160;52.876;18.778;2022-10-26T01:05:47;101016.29;;;10.00;100.00
52185;BME280;38160;52.876;18.778;2022-10-26T01:08:19;101020.28;;;9.96;100.00
52185;BME280;38160;52.876;18.778;2022-10-26T01:10:51;101017.39;;;9.94;100.00
52185;BME280;38160;52.876;18.778;2022-10-26T01:13:25;101019.70;;;9.88;100.00
52185;BME280;38160;52.876;18.778;2022-10-26T01:16:07;101017.09;;;9.83;100.00
52185;BME280;38160;52.876;18.778;2022-10-26T01:22:07;101017.16;;;9.73;100.00
52185;BME280;38160;52.876;18.778;2022-10-26T01:27:33;101018.48;;;9.59;100.00
52185;BME280;38160;52.876;18.778;2022-10-26T01:30:38;101025.61;;;9.50;100.00
52185;BME280;38160;52.876;18.778;2022-10-26T01:33:34;101019.27;;;9.42;100.00
52185;BME280;38160;52.876;18.778;2022-10-26T01:39:01;101019.11;;;9.29;100.00
52185;BME280;38160;52.876;18.778;2022-10-26T01:41:45;101020.09;;;9.28;100.00
52185;BME280;38160;52.876;18.778;2022-10-26T01:44:21;101018.09;;;9.30;100.00
52185;BME280;38160;52.876;18.778;2022-10-26T01:47:00;101026.88;;;9.33;100.00
52185;BME280;38160;52.876;18.778;2022-10-26T01:49:37;101024.25;;;9.37;100.00
52185;BME280;38160;52.876;18.778;2022-10-26T01:52:09;101022.12;;;9.40;100.00
52185;BME280;38160;52.876;18.778;2022-10-26T01:54:41;101027.71;;;9.43;100.00
52185;BME280;38160;52.876;18.778;2022-10-26T01:57:16;101022.46;;;9.41;100.00
52185;BME280;38160;52.876;18.778;2022-10-26T02:00:05;101031.75;;;9.43;100.00
52185;BME280;38160;52.876;18.778;2022-10-26T02:06:15;101029.00;;;9.53;100.00
52185;BME280;38160;52.876;18.778;2022-10-26T02:11:46;101017.78;;;9.57;100.00
52185;BME280;38160;52.876;18.778;2022-10-26T02:14:48;101021.73;;;9.63;100.00
52185;BME280;38160;52.876;18.778;2022-10-26T02:17:50;101022.89;;;9.60;100.00
52185;BME280;38160;52.876;18.778;2022-10-26T02:20:08;101024.05;;;9.58;100.00
52185;BME280;38160;52.876;18.778;2022-10-26T02:22:48;101020.34;;;9.59;100.00
52185;BME280;38160;52.876;18.778;2022-10-26T02:25:24;101023.23;;;9.61;100.00
52185;BME280;38160;52.876;18.778;2022-10-26T02:28:06;101025.92;;;9.61;100.00
52185;BME280;38160;52.876;18.778;2022-10-26T02:30:41;101028.62;;;9.61;100.00
52185;BME280;38160;52.876;18.778;2022-10-26T02:33:14;101029.32;;;9.63;100.00
52185;BME280;38160;52.876;18.778;2022-10-26T02:35:50;101032.72;;;9.65;100.00
52185;BME280;38160;52.876;18.778;2022-10-26T02:38:22;101026.68;;;9.67;100.00
52185;BME280;38160;52.876;18.778;2022-10-26T02:40:55;101034.91;;;9.66;100.00
52185;BME280;38160;52.876;18.778;2022-10-26T02:43:28;101031.62;;;9.58;100.00
52185;BME280;38160;52.876;18.778;2022-10-26T02:46:06;101033.75;;;9.55;100.00
52185;BME280;38160;52.876;18.778;2022-10-26T02:48:40;101041.30;;;9.51;100.00
52185;BME280;38160;52.876;18.778;2022-10-26T02:51:20;101050.02;;;9.49;100.00
52185;BME280;38160;52.876;18.778;2022-10-26T02:57:38;101042.97;;;9.38;100.00
52185;BME280;38160;52.876;18.778;2022-10-26T03:00:15;101044.56;;;9.31;100.00
52185;BME280;38160;52.876;18.778;2022-10-26T03:02:51;101056.75;;;9.25;100.00
52185;BME280;38160;52.876;18.778;2022-10-26T03:05:27;101059.11;;;9.24;100.00
52185;BME280;38160;52.876;18.778;2022-10-26T03:08:00;101062.44;;;9.22;100.00
52185;BME280;38160;52.876;18.778;2022-10-26T03:10:32;101070.95;;;9.18;100.00
52185;BME280;38160;52.876;18.778;2022-10-26T03:13:07;101068.53;;;9.15;100.00
52185;BME280;38160;52.876;18.778;2022-10-26T03:15:39;101068.84;;;9.12;100.00
52185;BME280;38160;52.876;18.778;2022-10-26T03:18:11;101068.27;;;9.08;100.00
52185;BME280;38160;52.876;18.778;2022-10-26T03:20:43;101063.18;;;9.05;100.00
52185;BME280;38160;52.876;18.778;2022-10-26T03:23:15;101067.48;;;9.02;100.00
52185;BME280;38160;52.876;18.778;2022-10-26T03:25:47;101064.59;;;8.99;100.00
52185;BME280;38160;52.876;18.778;2022-10-26T03:28:19;101067.58;;;8.96;100.00
52185;BME280;38160;52.876;18.778;2022-10-26T03:30:51;101074.31;;;8.96;100.00
52185;BME280;38160;52.876;18.778;2022-10-26T03:33:22;101072.26;;;8.94;100.00
52185;BME280;38160;52.876;18.778;2022-10-26T03:35:55;101065.33;;;8.92;100.00
52185;BME280;38160;52.876;18.778;2022-10-26T03:38:34;101070.34;;;8.91;100.00
52185;BME280;38160;52.876;18.778;2022-10-26T03:41:06;101075.85;;;8.89;100.00
52185;BME280;38160;52.876;18.778;2022-10-26T03:43:38;101069.80;;;8.87;100.00
52185;BME280;38160;52.876;18.778;2022-10-26T03:46:09;101071.61;;;8.86;100.00
52185;BME280;38160;52.876;18.778;2022-10-26T03:48:41;101079.22;;;8.87;100.00
52185;BME280;38160;52.876;18.778;2022-10-26T03:51:13;101077.56;;;8.90;100.00
52185;BME280;38160;52.876;18.778;2022-10-26T03:53:44;101071.98;;;8.87;100.00
52185;BME280;38160;52.876;18.778;2022-10-26T03:56:16;101073.16;;;8.89;100.00
52185;BME280;38160;52.876;18.778;2022-10-26T03:58:48;101075.72;;;8.91;100.00
52185;BME280;38160;52.876;18.778;2022-10-26T04:01:20;101076.36;;;8.88;100.00
52185;BME280;38160;52.876;18.778;2022-10-26T04:03:52;101077.87;;;8.87;100.00
52185;BME280;38160;52.876;18.778;2022-10-26T04:06:23;101077.50;;;8.86;100.00
52185;BME280;38160;52.876;18.778;2022-10-26T04:08:58;101080.69;;;8.85;100.00
52185;BME280;38160;52.876;18.778;2022-10-26T04:11:32;101086.48;;;8.91;100.00
52185;BME280;38160;52.876;18.778;2022-10-26T04:14:04;101081.17;;;8.95;100.00
52185;BME280;38160;52.876;18.778;2022-10-26T04:16:35;101089.53;;;9.01;100.00
52185;BME280;38160;52.876;18.778;2022-10-26T04:19:08;101079.77;;;9.00;100.00
52185;BME280;38160;52.876;18.778;2022-10-26T04:21:40;101084.98;;;9.02;100.00
52185;BME280;38160;52.876;18.778;2022-10-26T04:24:12;101086.27;;;9.07;100.00
52185;BME280;38160;52.876;18.778;2022-10-26T04:26:43;101084.79;;;9.09;100.00
52185;BME280;38160;52.876;18.778;2022-10-26T04:29:15;101091.98;;;9.08;100.00
52185;BME280;38160;52.876;18.778;2022-10-26T04:31:47;101089.50;;;9.11;100.00
52185;BME280;38160;52.876;18.778;2022-10-26T04:34:18;101087.52;;;9.13;100.00
52185;BME280;38160;52.876;18.778;2022-10-26T04:36:50;101091.29;;;9.16;100.00
52185;BME280;38160;52.876;18.778;2022-10-26T04:39:22;101096.38;;;9.19;100.00
52185;BME280;38160;52.876;18.778;2022-10-26T04:41:53;101101.48;;;9.22;100.00
52185;BME280;38160;52.876;18.778;2022-10-26T04:44:25;101094.59;;;9.24;100.00
52185;BME280;38160;52.876;18.778;2022-10-26T04:46:57;101100.89;;;9.28;100.00
52185;BME280;38160;52.876;18.778;2022-10-26T04:49:28;101106.54;;;9.35;100.00
52185;BME280;38160;52.876;18.778;2022-10-26T04:52:00;101106.41;;;9.37;100.00
52185;BME280;38160;52.876;18.778;2022-10-26T04:54:31;101113.20;;;9.41;100.00
52185;BME280;38160;52.876;18.778;2022-10-26T04:57:03;101110.84;;;9.42;100.00
52185;BME280;38160;52.876;18.778;2022-10-26T04:59:35;101111.92;;;9.45;100.00
52185;BME280;38160;52.876;18.778;2022-10-26T05:02:06;101110.91;;;9.46;100.00
52185;BME280;38160;52.876;18.778;2022-10-26T05:04:38;101111.42;;;9.45;100.00
52185;BME280;38160;52.876;18.778;2022-10-26T05:07:09;101114.62;;;9.45;100.00
52185;BME280;38160;52.876;18.778;2022-10-26T05:09:42;101117.75;;;9.40;100.00
52185;BME280;38160;52.876;18.778;2022-10-26T05:12:13;101117.89;;;9.39;100.00
52185;BME280;38160;52.876;18.778;2022-10-26T05:14:45;101122.50;;;9.33;100.00
52185;BME280;38160;52.876;18.778;2022-10-26T05:17:17;101123.84;;;9.33;100.00
52185;BME280;38160;52.876;18.778;2022-10-26T05:19:48;101124.92;;;9.36;100.00
52185;BME280;38160;52.876;18.778;2022-10-26T05:22:22;101126.27;;;9.36;100.00
52185;BME280;38160;52.876;18.778;2022-10-26T05:24:54;101123.38;;;9.33;100.00
52185;BME280;38160;52.876;18.778;2022-10-26T05:27:26;101132.80;;;9.33;100.00
52185;BME280;38160;52.876;18.778;2022-10-26T05:29:57;101129.60;;;9.34;100.00
52185;BME280;38160;52.876;18.778;2022-10-26T05:32:29;101131.45;;;9.33;100.00
52185;BME280;38160;52.876;18.778;2022-10-26T05:35:00;101136.67;;;9.35;100.00
52185;BME280;38160;52.876;18.778;2022-10-26T05:37:32;101143.58;;;9.33;100.00
52185;BME280;38160;52.876;18.778;2022-10-26T05:40:07;101137.18;;;9.34;100.00
52185;BME280;38160;52.876;18.778;2022-10-26T05:42:40;101135.83;;;9.34;100.00
52185;BME280;38160;52.876;18.778;2022-10-26T05:45:14;101143.71;;;9.32;100.00
52185;BME280;38160;52.876;18.778;2022-10-26T05:47:48;101148.09;;;9.33;100.00
52185;BME280;38160;52.876;18.778;2022-10-26T05:50:20;101155.33;;;9.32;100.00
52185;BME280;38160;52.876;18.778;2022-10-26T05:52:51;101156.03;;;9.34;100.00
52185;BME280;38160;52.876;18.778;2022-10-26T05:55:23;101158.80;;;9.38;100.00
52185;BME280;38160;52.876;18.778;2022-10-26T05:57:57;101153.31;;;9.44;100.00
52185;BME280;38160;52.876;18.778;2022-10-26T06:00:34;101159.34;;;9.52;100.00
52185;BME280;38160;52.876;18.778;2022-10-26T06:03:18;101162.95;;;9.56;100.00
52185;BME280;38160;52.876;18.778;2022-10-26T06:05:55;101165.98;;;9.57;100.00
52185;BME280;38160;52.876;18.778;2022-10-26T06:08:28;101167.12;;;9.55;100.00
52185;BME280;38160;52.876;18.778;2022-10-26T06:11:00;101175.50;;;9.52;100.00
52185;BME280;38160;52.876;18.778;2022-10-26T06:13:33;101172.17;;;9.54;100.00
52185;BME280;38160;52.876;18.778;2022-10-26T06:16:25;101162.54;;;9.51;100.00
52185;BME280;38160;52.876;18.778;2022-10-26T06:21:51;101163.98;;;9.59;100.00
52185;BME280;38160;52.876;18.778;2022-10-26T06:24:46;101166.55;;;9.61;100.00
52185;BME280;38160;52.876;18.778;2022-10-26T06:30:15;101166.75;;;9.63;100.00
52185;BME280;38160;52.876;18.778;2022-10-26T06:32:49;101177.02;;;9.74;100.00
52185;BME280;38160;52.876;18.778;2022-10-26T06:38:18;101187.99;;;9.86;100.00
52185;BME280;38160;52.876;18.778;2022-10-26T06:40:51;101185.50;;;9.88;100.00
52185;BME280;38160;52.876;18.778;2022-10-26T06:43:25;101187.89;;;9.91;100.00
52185;BME280;38160;52.876;18.778;2022-10-26T06:46:15;101195.33;;;9.94;100.00
52185;BME280;38160;52.876;18.778;2022-10-26T06:51:45;101194.81;;;10.04;100.00
52185;BME280;38160;52.876;18.778;2022-10-26T06:54:48;101203.75;;;10.04;100.00
52185;BME280;38160;52.876;18.778;2022-10-26T06:57:31;101201.83;;;10.01;100.00
52185;BME280;38160;52.876;18.778;2022-10-26T07:00:19;101203.37;;;10.03;100.00
52185;BME280;38160;52.876;18.778;2022-10-26T07:02:53;101204.78;;;10.07;100.00
52185;BME280;38160;52.876;18.778;2022-10-26T07:05:30;101198.75;;;10.09;100.00
52185;BME280;38160;52.876;18.778;2022-10-26T07:08:04;101203.93;;;10.17;100.00
52185;BME280;38160;52.876;18.778;2022-10-26T07:10:36;101190.19;;;10.24;100.00
52185;BME280;38160;52.876;18.778;2022-10-26T07:13:09;101202.48;;;10.32;100.00
52185;BME280;38160;52.876;18.778;2022-10-26T07:15:41;101200.50;;;10.38;100.00
52185;BME280;38160;52.876;18.778;2022-10-26T07:18:15;101203.31;;;10.46;100.00
52185;BME280;38160;52.876;18.778;2022-10-26T07:20:46;101207.41;;;10.50;100.00
52185;BME280;38160;52.876;18.778;2022-10-26T07:23:18;101209.02;;;10.57;100.00
52185;BME280;38160;52.876;18.778;2022-10-26T07:25:49;101206.56;;;10.64;100.00
52185;BME280;38160;52.876;18.778;2022-10-26T07:28:24;101213.87;;;10.67;100.00
52185;BME280;38160;52.876;18.778;2022-10-26T07:30:57;101211.31;;;10.66;100.00
52185;BME280;38160;52.876;18.778;2022-10-26T07:33:29;101221.09;;;10.67;100.00
52185;BME280;38160;52.876;18.778;2022-10-26T07:36:00;101214.06;;;10.70;100.00
52185;BME280;38160;52.876;18.778;2022-10-26T07:38:32;101225.84;;;10.69;100.00
52185;BME280;38160;52.876;18.778;2022-10-26T07:41:04;101225.64;;;10.66;100.00
52185;BME280;38160;52.876;18.778;2022-10-26T07:43:36;101235.09;;;10.66;100.00
52185;BME280;38160;52.876;18.778;2022-10-26T07:46:07;101232.39;;;10.66;100.00
52185;BME280;38160;52.876;18.778;2022-10-26T07:48:40;101233.46;;;10.69;100.00
52185;BME280;38160;52.876;18.778;2022-10-26T07:51:12;101229.89;;;10.69;100.00
52185;BME280;38160;52.876;18.778;2022-10-26T07:53:45;101235.98;;;10.71;100.00
52185;BME280;38160;52.876;18.778;2022-10-26T07:56:17;101230.69;;;10.79;100.00
52185;BME280;38160;52.876;18.778;2022-10-26T07:58:53;101233.58;;;10.82;100.00
52185;BME280;38160;52.876;18.778;2022-10-26T08:01:25;101236.14;;;10.83;100.00
52185;BME280;38160;52.876;18.778;2022-10-26T08:03:56;101238.06;;;10.91;100.00
52185;BME280;38160;52.876;18.778;2022-10-26T08:06:28;101237.28;;;10.94;100.00
52185;BME280;38160;52.876;18.778;2022-10-26T08:09:00;101242.58;;;11.00;100.00
52185;BME280;38160;52.876;18.778;2022-10-26T08:11:32;101252.41;;;11.05;100.00
52185;BME280;38160;52.876;18.778;2022-10-26T08:14:05;101258.56;;;11.11;100.00
52185;BME280;38160;52.876;18.778;2022-10-26T08:16:37;101256.25;;;11.17;100.00
52185;BME280;38160;52.876;18.778;2022-10-26T08:19:10;101257.45;;;11.18;100.00
52185;BME280;38160;52.876;18.778;2022-10-26T08:21:42;101259.50;;;11.20;100.00
52185;BME280;38160;52.876;18.778;2022-10-26T08:24:13;101252.09;;;11.22;100.00
52185;BME280;38160;52.876;18.778;2022-10-26T08:27:19;101251.81;;;11.29;100.00
52185;BME280;38160;52.876;18.778;2022-10-26T08:30:08;101251.69;;;11.35;100.00
52185;BME280;38160;52.876;18.778;2022-10-26T08:32:40;101257.35;;;11.42;100.00
52185;BME280;38160;52.876;18.778;2022-10-26T08:35:14;101260.06;;;11.46;100.00
52185;BME280;38160;52.876;18.778;2022-10-26T08:37:46;101259.30;;;11.53;100.00
52185;BME280;38160;52.876;18.778;2022-10-26T08:40:19;101267.64;;;11.60;100.00
52185;BME280;38160;52.876;18.778;2022-10-26T08:42:54;101272.02;;;11.61;100.00
52185;BME280;38160;52.876;18.778;2022-10-26T08:45:38;101271.33;;;11.59;100.00
52185;BME280;38160;52.876;18.778;2022-10-26T08:48:17;101264.86;;;11.52;100.00
52185;BME280;38160;52.876;18.778;2022-10-26T08:50:57;101273.70;;;11.58;100.00
52185;BME280;38160;52.876;18.778;2022-10-26T08:56:39;101268.38;;;11.66;100.00
52185;BME280;38160;52.876;18.778;2022-10-26T09:02:16;101272.22;;;11.82;100.00
52185;BME280;38160;52.876;18.778;2022-10-26T09:04:48;101268.20;;;11.86;100.00
52185;BME280;38160;52.876;18.778;2022-10-26T09:07:36;101268.77;;;11.93;100.00
52185;BME280;38160;52.876;18.778;2022-10-26T09:10:26;101269.65;;;11.98;100.00
52185;BME280;38160;52.876;18.778;2022-10-26T09:16:21;101267.88;;;12.11;100.00
52185;BME280;38160;52.876;18.778;2022-10-26T09:21:42;101279.79;;;12.22;100.00
52185;BME280;38160;52.876;18.778;2022-10-26T09:24:28;101287.79;;;12.28;100.00
52185;BME280;38160;52.876;18.778;2022-10-26T09:29:54;101288.12;;;12.29;100.00
52185;BME280;38160;52.876;18.778;2022-10-26T09:32:34;101293.20;;;12.28;100.00
52185;BME280;38160;52.876;18.778;2022-10-26T09:35:23;101295.73;;;12.25;100.00
52185;BME280;38160;52.876;18.778;2022-10-26T09:38:21;101295.00;;;12.19;100.00
52185;BME280;38160;52.876;18.778;2022-10-26T09:43:44;101298.19;;;12.14;100.00
52185;BME280;38160;52.876;18.778;2022-10-26T09:46:30;101300.38;;;12.15;100.00
52185;BME280;38160;52.876;18.778;2022-10-26T09:49:10;101298.22;;;12.18;100.00
52185;BME280;38160;52.876;18.778;2022-10-26T09:51:45;101303.45;;;12.20;100.00
52185;BME280;38160;52.876;18.778;2022-10-26T09:54:21;101298.61;;;12.28;100.00
52185;BME280;38160;52.876;18.778;2022-10-26T09:56:57;101304.53;;;12.31;100.00
52185;BME280;38160;52.876;18.778;2022-10-26T09:59:56;101307.09;;;12.33;100.00
52185;BME280;38160;52.876;18.778;2022-10-26T10:02:34;101315.42;;;12.39;100.00
52185;BME280;38160;52.876;18.778;2022-10-26T10:05:31;101293.23;;;12.32;100.00
52185;BME280;38160;52.876;18.778;2022-10-26T10:08:24;101317.44;;;12.37;100.00
52185;BME280;38160;52.876;18.778;2022-10-26T10:11:10;101315.78;;;12.41;100.00
52185;BME280;38160;52.876;18.778;2022-10-26T10:13:44;101319.87;;;12.49;100.00
52185;BME280;38160;52.876;18.778;2022-10-26T10:16:22;101319.38;;;12.53;100.00
52185;BME280;38160;52.876;18.778;2022-10-26T10:18:56;101324.65;;;12.55;100.00
52185;BME280;38160;52.876;18.778;2022-10-26T10:21:37;101312.66;;;12.62;100.00
52185;BME280;38160;52.876;18.778;2022-10-26T10:24:30;101312.36;;;12.69;100.00
52185;BME280;38160;52.876;18.778;2022-10-26T10:29:53;101317.67;;;12.78;100.00
52185;BME280;38160;52.876;18.778;2022-10-26T10:32:28;101316.80;;;12.74;100.00
52185;BME280;38160;52.876;18.778;2022-10-26T10:35:01;101318.16;;;12.74;100.00
52185;BME280;38160;52.876;18.778;2022-10-26T10:37:38;101290.30;;;12.55;100.00
52185;BME280;38160;52.876;18.778;2022-10-26T10:40:20;101327.30;;;12.77;100.00
52185;BME280;38160;52.876;18.778;2022-10-26T10:43:11;101320.55;;;12.81;100.00
52185;BME280;38160;52.876;18.778;2022-10-26T10:45:49;101325.30;;;12.83;100.00
52185;BME280;38160;52.876;18.778;2022-10-26T10:48:27;101325.14;;;12.89;100.00
52185;BME280;38160;52.876;18.778;2022-10-26T10:51:04;101323.78;;;12.89;100.00
52185;BME280;38160;52.876;18.778;2022-10-26T10:53:45;101327.88;;;12.93;100.00
52185;BME280;38160;52.876;18.778;2022-10-26T10:59:43;101330.96;;;12.98;100.00
52185;BME280;38160;52.876;18.778;2022-10-26T11:02:39;101323.18;;;13.03;100.00
52185;BME280;38160;52.876;18.778;2022-10-26T11:05:29;101326.73;;;13.04;100.00
52185;BME280;38160;52.876;18.778;2022-10-26T11:11:30;101321.50;;;13.10;100.00
52185;BME280;38160;52.876;18.778;2022-10-26T11:14:09;101325.76;;;13.09;100.00
52185;BME280;38160;52.876;18.778;2022-10-26T11:17:26;101332.51;;;13.05;100.00
52185;BME280;38160;52.876;18.778;2022-10-26T11:20:04;101329.11;;;13.03;100.00
52185;BME280;38160;52.876;18.778;2022-10-26T11:23:30;101325.91;;;13.07;100.00
52185;BME280;38160;52.876;18.778;2022-10-26T11:25:34;101332.55;;;13.21;100.00
52185;BME280;38160;52.876;18.778;2022-10-26T11:28:33;101326.98;;;13.27;100.00
52185;BME280;38160;52.876;18.778;2022-10-26T11:31:12;101325.64;;;13.27;100.00
52185;BME280;38160;52.876;18.778;2022-10-26T11:34:00;101329.77;;;13.35;100.00
52185;BME280;38160;52.876;18.778;2022-10-26T11:36:30;101323.82;;;13.44;100.00
52185;BME280;38160;52.876;18.778;2022-10-26T11:39:57;101330.80;;;13.54;100.00
52185;BME280;38160;52.876;18.778;2022-10-26T11:42:23;101326.07;;;13.65;100.00
52185;BME280;38160;52.876;18.778;2022-10-26T11:45:08;101329.31;;;13.72;100.00
52185;BME280;38160;52.876;18.778;2022-10-26T11:47:45;101331.52;;;13.73;100.00
52185;BME280;38160;52.876;18.778;2022-10-26T11:50:33;101335.08;;;13.81;100.00
52185;BME280;38160;52.876;18.778;2022-10-26T11:53:11;101331.19;;;13.88;100.00
52185;BME280;38160;52.876;18.778;2022-10-26T11:55:52;101323.20;;;13.87;100.00
52185;BME280;38160;52.876;18.778;2022-10-26T11:58:27;101324.89;;;13.92;100.00
52185;BME280;38160;52.876;18.778;2022-10-26T12:01:00;101322.38;;;13.94;100.00
52185;BME280;38160;52.876;18.778;2022-10-26T12:03:40;101328.28;;;13.90;100.00
52185;BME280;38160;52.876;18.778;2022-10-26T12:06:21;101326.08;;;13.85;100.00
52185;BME280;38160;52.876;18.778;2022-10-26T12:08:59;101331.34;;;13.87;100.00
52185;BME280;38160;52.876;18.778;2022-10-26T12:11:51;101330.99;;;13.90;100.00
52185;BME280;38160;52.876;18.778;2022-10-26T12:14:53;101337.30;;;13.94;100.00
52185;BME280;38160;52.876;18.778;2022-10-26T12:17:38;101336.78;;;13.99;100.00
52185;BME280;38160;52.876;18.778;2022-10-26T12:23:17;101337.63;;;14.12;100.00
52185;BME280;38160;52.876;18.778;2022-10-26T12:25:49;101338.47;;;14.12;100.00
52185;BME280;38160;52.876;18.778;2022-10-26T12:28:38;101343.06;;;14.08;100.00
52185;BME280;38160;52.876;18.778;2022-10-26T12:34:14;101338.14;;;14.03;100.00
52185;BME280;38160;52.876;18.778;2022-10-26T12:39:35;101335.44;;;14.03;100.00
52185;BME280;38160;52.876;18.778;2022-10-26T12:50:18;101336.95;;;14.10;100.00
52185;BME280;38160;52.876;18.778;2022-10-26T13:04:48;101342.03;;;14.25;100.00
52185;BME280;38160;52.876;18.778;2022-10-26T13:07:25;101339.31;;;14.21;100.00
52185;BME280;38160;52.876;18.778;2022-10-26T13:10:16;101339.80;;;14.29;100.00
52185;BME280;38160;52.876;18.778;2022-10-26T13:12:55;101333.02;;;14.29;100.00
52185;BME280;38160;52.876;18.778;2022-10-26T13:15:54;101330.81;;;14.28;100.00
52185;BME280;38160;52.876;18.778;2022-10-26T13:18:26;101330.81;;;14.28;100.00
52185;BME280;38160;52.876;18.778;2022-10-26T13:21:10;101330.30;;;14.29;100.00
52185;BME280;38160;52.876;18.778;2022-10-26T13:26:31;101324.39;;;14.25;100.00
52185;BME280;38160;52.876;18.778;2022-10-26T13:29:07;101326.58;;;14.30;100.00
52185;BME280;38160;52.876;18.778;2022-10-26T13:31:51;101331.66;;;14.29;99.98
52185;BME280;38160;52.876;18.778;2022-10-26T13:34:22;101326.58;;;14.21;100.00
52185;BME280;38160;52.876;18.778;2022-10-26T13:39:45;101339.31;;;14.25;99.91
52185;BME280;38160;52.876;18.778;2022-10-26T13:42:20;101342.52;;;14.24;99.96
52185;BME280;38160;52.876;18.778;2022-10-26T13:45:05;101339.48;;;14.28;100.00
52185;BME280;38160;52.876;18.778;2022-10-26T13:47:48;101343.36;;;14.29;99.85
52185;BME280;38160;52.876;18.778;2022-10-26T13:50:35;101353.57;;;14.23;99.77
52185;BME280;38160;52.876;18.778;2022-10-26T13:53:22;101348.81;;;14.21;99.93
52185;BME280;38160;52.876;18.778;2022-10-26T13:59:07;101343.88;;;14.29;99.84
52185;BME280;38160;52.876;18.778;2022-10-26T14:01:39;101349.98;;;14.31;99.76
52185;BME280;38160;52.876;18.778;2022-10-26T14:04:28;101343.88;;;14.37;99.52
52185;BME280;38160;52.876;18.778;2022-10-26T14:06:58;101346.06;;;14.37;98.60
52185;BME280;38160;52.876;18.778;2022-10-26T14:09:31;101341.31;;;14.35;98.98
52185;BME280;38160;52.876;18.778;2022-10-26T14:12:03;101340.12;;;14.38;99.14
52185;BME280;38160;52.876;18.778;2022-10-26T14:14:37;101337.92;;;14.37;99.14
52185;BME280;38160;52.876;18.778;2022-10-26T14:17:21;101337.41;;;14.38;99.10
52185;BME280;38160;52.876;18.778;2022-10-26T14:20:06;101329.45;;;14.40;98.97
52185;BME280;38160;52.876;18.778;2022-10-26T14:22:42;101320.47;;;14.32;98.94
52185;BME280;38160;52.876;18.778;2022-10-26T14:25:23;101332.49;;;14.33;99.18
52185;BME280;38160;52.876;18.778;2022-10-26T14:27:57;101349.50;;;14.27;99.11
52185;BME280;38160;52.876;18.778;2022-10-26T14:30:31;101343.88;;;14.24;99.33
52185;BME280;38160;52.876;18.778;2022-10-26T14:33:16;101347.95;;;14.24;99.26
52185;BME280;38160;52.876;18.778;2022-10-26T14:35:40;101340.48;;;14.22;99.34
52185;BME280;38160;52.876;18.778;2022-10-26T14:38:23;101339.64;;;14.22;98.92
52185;BME280;38160;52.876;18.778;2022-10-26T14:41:00;101340.16;;;14.17;98.78
52185;BME280;38160;52.876;18.778;2022-10-26T14:43:32;101346.62;;;14.12;98.91
52185;BME280;38160;52.876;18.778;2022-10-26T14:46:04;101348.14;;;14.11;98.95
52185;BME280;38160;52.876;18.778;2022-10-26T14:48:37;101352.36;;;14.09;98.92
52185;BME280;38160;52.876;18.778;2022-10-26T14:51:15;101354.08;;;14.06;98.97
52185;BME280;38160;52.876;18.778;2022-10-26T14:53:53;101353.07;;;14.03;99.15
52185;BME280;38160;52.876;18.778;2022-10-26T14:56:29;101347.64;;;13.99;99.17
52185;BME280;38160;52.876;18.778;2022-10-26T15:02:18;101346.11;;;13.92;98.80
52185;BME280;38160;52.876;18.778;2022-10-26T15:04:59;101349.34;;;13.88;98.81
52185;BME280;38160;52.876;18.778;2022-10-26T15:07:36;101350.33;;;13.82;98.61